sensor_id;sensor_type;location;lat;lon;timestamp;P1;durP1;ratioP1;P2;durP2;ratioP2
16504;SDS011;8365;51.030;4.696;2023-02-03T00:01:18;8.20;;;4.20;;
16504;SDS011;8365;51.030;4.696;2023-02-03T00:03:49;9.37;;;4.00;;
16504;SDS011;8365;51.030;4.696;2023-02-03T00:06:19;9.23;;;4.60;;
16504;SDS011;8365;51.030;4.696;2023-02-03T00:08:54;8.77;;;4.63;;
16504;SDS011;8365;51.030;4.696;2023-02-03T00:11:26;9.90;;;4.57;;
16504;SDS011;8365;51.030;4.696;2023-02-03T00:13:59;11.03;;;4.53;;
16504;SDS011;8365;51.030;4.696;2023-02-03T00:16:30;9.43;;;4.23;;
16504;SDS011;8365;51.030;4.696;2023-02-03T00:19:00;7.10;;;4.00;;
16504;SDS011;8365;51.030;4.696;2023-02-03T00:21:31;5.20;;;4.07;;
16504;SDS011;8365;51.030;4.696;2023-02-03T00:24:02;7.60;;;4.40;;
16504;SDS011;8365;51.030;4.696;2023-02-03T00:26:32;8.53;;;4.83;;
16504;SDS011;8365;51.030;4.696;2023-02-03T00:29:03;9.37;;;4.80;;
16504;SDS011;8365;51.030;4.696;2023-02-03T00:31:35;10.10;;;4.90;;
16504;SDS011;8365;51.030;4.696;2023-02-03T00:34:06;10.30;;;4.53;;
16504;SDS011;8365;51.030;4.696;2023-02-03T00:36:36;10.83;;;4.93;;
16504;SDS011;8365;51.030;4.696;2023-02-03T00:39:07;6.77;;;4.73;;
16504;SDS011;8365;51.030;4.696;2023-02-03T00:41:37;6.37;;;4.30;;
16504;SDS011;8365;51.030;4.696;2023-02-03T00:44:08;9.37;;;4.73;;
16504;SDS011;8365;51.030;4.696;2023-02-03T00:46:38;10.53;;;5.00;;
16504;SDS011;8365;51.030;4.696;2023-02-03T00:49:09;11.13;;;5.07;;
16504;SDS011;8365;51.030;4.696;2023-02-03T00:51:39;10.00;;;4.60;;
16504;SDS011;8365;51.030;4.696;2023-02-03T00:54:12;7.73;;;4.77;;
16504;SDS011;8365;51.030;4.696;2023-02-03T00:56:43;6.60;;;4.13;;
16504;SDS011;8365;51.030;4.696;2023-02-03T00:59:13;9.13;;;4.80;;
16504;SDS011;8365;51.030;4.696;2023-02-03T01:01:46;7.10;;;3.87;;
16504;SDS011;8365;51.030;4.696;2023-02-03T01:04:18;13.23;;;4.30;;
16504;SDS011;8365;51.030;4.696;2023-02-03T01:06:49;7.57;;;3.83;;
16504;SDS011;8365;51.030;4.696;2023-02-03T01:09:20;10.43;;;3.67;;
16504;SDS011;8365;51.030;4.696;2023-02-03T01:11:51;10.50;;;4.37;;
16504;SDS011;8365;51.030;4.696;2023-02-03T01:14:21;9.47;;;4.13;;
16504;SDS011;8365;51.030;4.696;2023-02-03T01:16:52;9.27;;;4.20;;
16504;SDS011;8365;51.030;4.696;2023-02-03T01:19:22;6.13;;;3.57;;
16504;SDS011;8365;51.030;4.696;2023-02-03T01:21:53;7.60;;;4.10;;
16504;SDS011;8365;51.030;4.696;2023-02-03T01:24:23;7.97;;;3.80;;
16504;SDS011;8365;51.030;4.696;2023-02-03T01:26:53;7.93;;;3.53;;
16504;SDS011;8365;51.030;4.696;2023-02-03T01:29:24;9.70;;;3.87;;
16504;SDS011;8365;51.030;4.696;2023-02-03T01:31:55;5.93;;;3.17;;
16504;SDS011;8365;51.030;4.696;2023-02-03T01:34:27;6.37;;;3.40;;
16504;SDS011;8365;51.030;4.696;2023-02-03T01:36:58;9.87;;;3.83;;
16504;SDS011;8365;51.030;4.696;2023-02-03T01:39:28;9.33;;;3.50;;
16504;SDS011;8365;51.030;4.696;2023-02-03T01:41:59;9.07;;;3.10;;
16504;SDS011;8365;51.030;4.696;2023-02-03T01:47:13;11.03;;;3.70;;
16504;SDS011;8365;51.030;4.696;2023-02-03T01:49:59;11.00;;;3.50;;
16504;SDS011;8365;51.030;4.696;2023-02-03T01:52:31;9.70;;;3.30;;
16504;SDS011;8365;51.030;4.696;2023-02-03T01:55:07;8.43;;;3.87;;
16504;SDS011;8365;51.030;4.696;2023-02-03T01:57:43;10.63;;;3.67;;
16504;SDS011;8365;51.030;4.696;2023-02-03T02:00:18;9.57;;;3.30;;
16504;SDS011;8365;51.030;4.696;2023-02-03T02:02:49;6.57;;;3.67;;
16504;SDS011;8365;51.030;4.696;2023-02-03T02:05:40;6.57;;;2.60;;
16504;SDS011;8365;51.030;4.696;2023-02-03T02:08:17;5.93;;;2.70;;
16504;SDS011;8365;51.030;4.696;2023-02-03T02:10:51;6.83;;;3.20;;
16504;SDS011;8365;51.030;4.696;2023-02-03T02:13:22;6.60;;;2.90;;
16504;SDS011;8365;51.030;4.696;2023-02-03T02:15:57;7.50;;;3.00;;
16504;SDS011;8365;51.030;4.696;2023-02-03T02:24:38;8.07;;;3.07;;
16504;SDS011;8365;51.030;4.696;2023-02-03T02:39:20;10.80;;;3.30;;
16504;SDS011;8365;51.030;4.696;2023-02-03T02:42:14;9.37;;;3.07;;
16504;SDS011;8365;51.030;4.696;2023-02-03T02:44:52;12.50;;;3.00;;
16504;SDS011;8365;51.030;4.696;2023-02-03T02:47:27;6.37;;;2.67;;
16504;SDS011;8365;51.030;4.696;2023-02-03T02:50:02;8.97;;;3.20;;
16504;SDS011;8365;51.030;4.696;2023-02-03T02:52:38;6.17;;;2.80;;
16504;SDS011;8365;51.030;4.696;2023-02-03T02:55:20;5.13;;;2.80;;
16504;SDS011;8365;51.030;4.696;2023-02-03T02:57:54;7.50;;;2.70;;
16504;SDS011;8365;51.030;4.696;2023-02-03T03:00:30;8.93;;;3.13;;
16504;SDS011;8365;51.030;4.696;2023-02-03T03:03:21;7.83;;;2.90;;
16504;SDS011;8365;51.030;4.696;2023-02-03T03:05:54;5.80;;;2.87;;
16504;SDS011;8365;51.030;4.696;2023-02-03T03:08:36;8.27;;;2.70;;
16504;SDS011;8365;51.030;4.696;2023-02-03T03:11:13;8.10;;;2.70;;
16504;SDS011;8365;51.030;4.696;2023-02-03T03:13:50;6.57;;;2.70;;
16504;SDS011;8365;51.030;4.696;2023-02-03T03:16:23;8.97;;;2.73;;
16504;SDS011;8365;51.030;4.696;2023-02-03T03:18:57;9.70;;;3.47;;
16504;SDS011;8365;51.030;4.696;2023-02-03T03:21:34;8.37;;;2.57;;
16504;SDS011;8365;51.030;4.696;2023-02-03T03:24:09;6.77;;;2.90;;
16504;SDS011;8365;51.030;4.696;2023-02-03T03:26:50;8.03;;;2.70;;
16504;SDS011;8365;51.030;4.696;2023-02-03T03:29:30;4.83;;;2.87;;
16504;SDS011;8365;51.030;4.696;2023-02-03T03:32:06;5.93;;;2.40;;
16504;SDS011;8365;51.030;4.696;2023-02-03T03:34:36;5.87;;;2.60;;
16504;SDS011;8365;51.030;4.696;2023-02-03T03:37:11;10.27;;;3.27;;
16504;SDS011;8365;51.030;4.696;2023-02-03T03:39:50;4.80;;;3.07;;
16504;SDS011;8365;51.030;4.696;2023-02-03T03:45:06;4.87;;;2.10;;
16504;SDS011;8365;51.030;4.696;2023-02-03T03:47:49;5.53;;;2.43;;
16504;SDS011;8365;51.030;4.696;2023-02-03T03:50:31;6.17;;;2.40;;
16504;SDS011;8365;51.030;4.696;2023-02-03T03:53:06;5.83;;;2.37;;
16504;SDS011;8365;51.030;4.696;2023-02-03T03:55:39;7.50;;;2.30;;
16504;SDS011;8365;51.030;4.696;2023-02-03T03:58:13;5.13;;;2.40;;
16504;SDS011;8365;51.030;4.696;2023-02-03T04:00:47;6.87;;;2.40;;
16504;SDS011;8365;51.030;4.696;2023-02-03T04:03:23;7.20;;;2.77;;
16504;SDS011;8365;51.030;4.696;2023-02-03T04:05:58;7.33;;;2.57;;
16504;SDS011;8365;51.030;4.696;2023-02-03T04:08:28;7.63;;;2.70;;
16504;SDS011;8365;51.030;4.696;2023-02-03T04:10:59;8.60;;;2.23;;
16504;SDS011;8365;51.030;4.696;2023-02-03T04:13:29;5.23;;;2.60;;
16504;SDS011;8365;51.030;4.696;2023-02-03T04:16:00;5.13;;;2.73;;
16504;SDS011;8365;51.030;4.696;2023-02-03T04:18:30;4.83;;;2.40;;
16504;SDS011;8365;51.030;4.696;2023-02-03T04:21:01;4.37;;;2.10;;
16504;SDS011;8365;51.030;4.696;2023-02-03T04:23:31;5.33;;;2.43;;
16504;SDS011;8365;51.030;4.696;2023-02-03T04:26:02;4.87;;;2.53;;
16504;SDS011;8365;51.030;4.696;2023-02-03T04:28:32;7.60;;;2.53;;
16504;SDS011;8365;51.030;4.696;2023-02-03T04:31:03;8.17;;;2.40;;
16504;SDS011;8365;51.030;4.696;2023-02-03T04:33:33;6.70;;;2.47;;
16504;SDS011;8365;51.030;4.696;2023-02-03T04:36:04;5.03;;;2.20;;
16504;SDS011;8365;51.030;4.696;2023-02-03T04:38:34;6.33;;;2.33;;
16504;SDS011;8365;51.030;4.696;2023-02-03T04:41:05;6.10;;;2.63;;
16504;SDS011;8365;51.030;4.696;2023-02-03T04:43:38;6.43;;;2.10;;
16504;SDS011;8365;51.030;4.696;2023-02-03T04:46:08;5.77;;;2.30;;
16504;SDS011;8365;51.030;4.696;2023-02-03T04:48:39;5.77;;;2.27;;
16504;SDS011;8365;51.030;4.696;2023-02-03T04:51:10;3.13;;;1.93;;
16504;SDS011;8365;51.030;4.696;2023-02-03T04:53:42;7.13;;;2.80;;
16504;SDS011;8365;51.030;4.696;2023-02-03T04:56:13;3.87;;;2.13;;
16504;SDS011;8365;51.030;4.696;2023-02-03T04:58:45;5.97;;;2.30;;
16504;SDS011;8365;51.030;4.696;2023-02-03T05:01:15;4.30;;;2.03;;
16504;SDS011;8365;51.030;4.696;2023-02-03T05:03:45;6.37;;;1.90;;
16504;SDS011;8365;51.030;4.696;2023-02-03T05:06:16;5.67;;;2.43;;
16504;SDS011;8365;51.030;4.696;2023-02-03T05:08:46;6.07;;;2.20;;
16504;SDS011;8365;51.030;4.696;2023-02-03T05:11:17;5.87;;;2.30;;
16504;SDS011;8365;51.030;4.696;2023-02-03T05:13:47;5.57;;;2.20;;
16504;SDS011;8365;51.030;4.696;2023-02-03T05:16:18;7.43;;;2.27;;
16504;SDS011;8365;51.030;4.696;2023-02-03T05:18:49;5.83;;;2.13;;
16504;SDS011;8365;51.030;4.696;2023-02-03T05:21:19;4.73;;;2.00;;
16504;SDS011;8365;51.030;4.696;2023-02-03T05:23:50;4.83;;;2.23;;
16504;SDS011;8365;51.030;4.696;2023-02-03T05:26:20;4.03;;;1.70;;
16504;SDS011;8365;51.030;4.696;2023-02-03T05:28:51;5.47;;;1.83;;
16504;SDS011;8365;51.030;4.696;2023-02-03T05:31:21;4.33;;;2.30;;
16504;SDS011;8365;51.030;4.696;2023-02-03T05:33:52;6.73;;;2.10;;
16504;SDS011;8365;51.030;4.696;2023-02-03T05:36:24;3.13;;;1.70;;
16504;SDS011;8365;51.030;4.696;2023-02-03T05:38:55;6.53;;;2.37;;
16504;SDS011;8365;51.030;4.696;2023-02-03T05:41:25;4.10;;;2.27;;
16504;SDS011;8365;51.030;4.696;2023-02-03T05:44:14;4.73;;;2.10;;
16504;SDS011;8365;51.030;4.696;2023-02-03T05:46:45;6.83;;;2.40;;
16504;SDS011;8365;51.030;4.696;2023-02-03T05:49:15;6.97;;;1.90;;
16504;SDS011;8365;51.030;4.696;2023-02-03T05:51:46;3.77;;;1.80;;
16504;SDS011;8365;51.030;4.696;2023-02-03T05:54:16;4.90;;;1.90;;
16504;SDS011;8365;51.030;4.696;2023-02-03T05:56:47;4.87;;;2.23;;
16504;SDS011;8365;51.030;4.696;2023-02-03T05:59:17;5.27;;;2.23;;
16504;SDS011;8365;51.030;4.696;2023-02-03T06:01:48;6.47;;;2.20;;
16504;SDS011;8365;51.030;4.696;2023-02-03T06:04:20;4.13;;;2.53;;
16504;SDS011;8365;51.030;4.696;2023-02-03T06:06:51;6.03;;;1.90;;
16504;SDS011;8365;51.030;4.696;2023-02-03T06:09:21;2.93;;;1.80;;
16504;SDS011;8365;51.030;4.696;2023-02-03T06:11:52;4.47;;;2.13;;
16504;SDS011;8365;51.030;4.696;2023-02-03T06:14:22;7.57;;;2.20;;
16504;SDS011;8365;51.030;4.696;2023-02-03T06:16:53;6.07;;;2.07;;
16504;SDS011;8365;51.030;4.696;2023-02-03T06:19:23;5.37;;;1.93;;
16504;SDS011;8365;51.030;4.696;2023-02-03T06:21:54;5.50;;;2.17;;
16504;SDS011;8365;51.030;4.696;2023-02-03T06:24:24;3.93;;;1.87;;
16504;SDS011;8365;51.030;4.696;2023-02-03T06:26:54;7.67;;;1.90;;
16504;SDS011;8365;51.030;4.696;2023-02-03T06:29:25;4.43;;;1.93;;
16504;SDS011;8365;51.030;4.696;2023-02-03T06:31:55;7.17;;;2.10;;
16504;SDS011;8365;51.030;4.696;2023-02-03T06:34:26;4.10;;;1.97;;
16504;SDS011;8365;51.030;4.696;2023-02-03T06:36:57;2.67;;;1.80;;
16504;SDS011;8365;51.030;4.696;2023-02-03T06:39:27;2.50;;;1.47;;
16504;SDS011;8365;51.030;4.696;2023-02-03T06:41:57;5.10;;;1.77;;
16504;SDS011;8365;51.030;4.696;2023-02-03T06:44:28;3.17;;;1.70;;
16504;SDS011;8365;51.030;4.696;2023-02-03T06:47:01;5.80;;;1.80;;
16504;SDS011;8365;51.030;4.696;2023-02-03T06:49:34;5.93;;;1.80;;
16504;SDS011;8365;51.030;4.696;2023-02-03T06:52:05;3.63;;;1.50;;
16504;SDS011;8365;51.030;4.696;2023-02-03T06:54:35;5.23;;;1.97;;
16504;SDS011;8365;51.030;4.696;2023-02-03T06:57:06;4.10;;;2.17;;
16504;SDS011;8365;51.030;4.696;2023-02-03T06:59:36;4.63;;;1.77;;
16504;SDS011;8365;51.030;4.696;2023-02-03T07:02:08;4.93;;;2.23;;
16504;SDS011;8365;51.030;4.696;2023-02-03T07:04:40;5.07;;;2.23;;
16504;SDS011;8365;51.030;4.696;2023-02-03T07:07:14;6.13;;;2.23;;
16504;SDS011;8365;51.030;4.696;2023-02-03T07:09:44;5.17;;;1.97;;
16504;SDS011;8365;51.030;4.696;2023-02-03T07:12:15;5.00;;;1.77;;
16504;SDS011;8365;51.030;4.696;2023-02-03T07:14:45;3.20;;;1.73;;
16504;SDS011;8365;51.030;4.696;2023-02-03T07:17:16;3.13;;;1.60;;
16504;SDS011;8365;51.030;4.696;2023-02-03T07:19:46;2.57;;;1.60;;
16504;SDS011;8365;51.030;4.696;2023-02-03T07:22:17;2.77;;;2.00;;
16504;SDS011;8365;51.030;4.696;2023-02-03T07:24:47;4.60;;;2.10;;
16504;SDS011;8365;51.030;4.696;2023-02-03T07:27:18;4.17;;;1.50;;
16504;SDS011;8365;51.030;4.696;2023-02-03T07:29:49;4.77;;;1.73;;
16504;SDS011;8365;51.030;4.696;2023-02-03T07:32:19;3.97;;;1.83;;
16504;SDS011;8365;51.030;4.696;2023-02-03T07:34:52;4.27;;;1.90;;
16504;SDS011;8365;51.030;4.696;2023-02-03T07:37:23;4.07;;;1.70;;
16504;SDS011;8365;51.030;4.696;2023-02-03T07:39:55;4.13;;;2.07;;
16504;SDS011;8365;51.030;4.696;2023-02-03T07:42:26;4.20;;;1.80;;
16504;SDS011;8365;51.030;4.696;2023-02-03T07:44:59;4.97;;;2.10;;
16504;SDS011;8365;51.030;4.696;2023-02-03T07:47:31;2.27;;;1.77;;
16504;SDS011;8365;51.030;4.696;2023-02-03T07:50:02;4.13;;;1.80;;
16504;SDS011;8365;51.030;4.696;2023-02-03T07:52:34;4.70;;;2.10;;
16504;SDS011;8365;51.030;4.696;2023-02-03T07:55:04;4.10;;;1.93;;
16504;SDS011;8365;51.030;4.696;2023-02-03T07:57:35;5.40;;;1.97;;
16504;SDS011;8365;51.030;4.696;2023-02-03T08:00:06;5.23;;;2.00;;
16504;SDS011;8365;51.030;4.696;2023-02-03T08:02:37;3.90;;;2.20;;
16504;SDS011;8365;51.030;4.696;2023-02-03T08:05:08;4.77;;;2.20;;
16504;SDS011;8365;51.030;4.696;2023-02-03T08:07:39;6.80;;;1.83;;
16504;SDS011;8365;51.030;4.696;2023-02-03T08:10:11;6.07;;;2.10;;
16504;SDS011;8365;51.030;4.696;2023-02-03T08:12:44;4.47;;;2.00;;
16504;SDS011;8365;51.030;4.696;2023-02-03T08:15:16;3.53;;;2.13;;
16504;SDS011;8365;51.030;4.696;2023-02-03T08:17:47;2.53;;;2.10;;
16504;SDS011;8365;51.030;4.696;2023-02-03T08:20:18;5.30;;;1.77;;
16504;SDS011;8365;51.030;4.696;2023-02-03T08:22:51;2.97;;;1.97;;
16504;SDS011;8365;51.030;4.696;2023-02-03T08:25:22;7.57;;;1.90;;
16504;SDS011;8365;51.030;4.696;2023-02-03T08:27:52;3.30;;;2.30;;
16504;SDS011;8365;51.030;4.696;2023-02-03T08:30:23;4.57;;;2.07;;
16504;SDS011;8365;51.030;4.696;2023-02-03T08:32:54;5.13;;;1.83;;
16504;SDS011;8365;51.030;4.696;2023-02-03T08:35:26;3.03;;;1.90;;
16504;SDS011;8365;51.030;4.696;2023-02-03T08:38:01;3.77;;;2.30;;
16504;SDS011;8365;51.030;4.696;2023-02-03T08:40:31;4.07;;;2.20;;
16504;SDS011;8365;51.030;4.696;2023-02-03T08:43:02;4.57;;;2.30;;
16504;SDS011;8365;51.030;4.696;2023-02-03T08:45:34;3.43;;;2.23;;
16504;SDS011;8365;51.030;4.696;2023-02-03T08:48:05;4.40;;;2.40;;
16504;SDS011;8365;51.030;4.696;2023-02-03T08:50:35;4.77;;;3.03;;
16504;SDS011;8365;51.030;4.696;2023-02-03T08:53:06;6.03;;;2.17;;
16504;SDS011;8365;51.030;4.696;2023-02-03T08:55:38;5.33;;;2.40;;
16504;SDS011;8365;51.030;4.696;2023-02-03T08:58:11;3.57;;;2.13;;
16504;SDS011;8365;51.030;4.696;2023-02-03T09:00:42;5.60;;;2.47;;
16504;SDS011;8365;51.030;4.696;2023-02-03T09:03:12;5.37;;;2.40;;
16504;SDS011;8365;51.030;4.696;2023-02-03T09:05:43;5.87;;;2.63;;
16504;SDS011;8365;51.030;4.696;2023-02-03T09:08:13;3.77;;;2.10;;
16504;SDS011;8365;51.030;4.696;2023-02-03T09:10:44;4.67;;;2.40;;
16504;SDS011;8365;51.030;4.696;2023-02-03T09:13:14;4.03;;;2.53;;
16504;SDS011;8365;51.030;4.696;2023-02-03T09:15:45;3.40;;;2.63;;
16504;SDS011;8365;51.030;4.696;2023-02-03T09:18:15;3.00;;;2.47;;
16504;SDS011;8365;51.030;4.696;2023-02-03T09:20:46;6.07;;;2.67;;
16504;SDS011;8365;51.030;4.696;2023-02-03T09:23:16;8.07;;;3.10;;
16504;SDS011;8365;51.030;4.696;2023-02-03T09:25:47;5.40;;;3.03;;
16504;SDS011;8365;51.030;4.696;2023-02-03T09:28:17;6.47;;;4.03;;
16504;SDS011;8365;51.030;4.696;2023-02-03T09:30:48;8.33;;;3.60;;
16504;SDS011;8365;51.030;4.696;2023-02-03T09:33:18;8.50;;;3.90;;
16504;SDS011;8365;51.030;4.696;2023-02-03T09:35:52;5.90;;;3.70;;
16504;SDS011;8365;51.030;4.696;2023-02-03T09:38:23;4.47;;;3.10;;
16504;SDS011;8365;51.030;4.696;2023-02-03T09:40:56;5.67;;;3.63;;
16504;SDS011;8365;51.030;4.696;2023-02-03T09:46:16;4.17;;;3.03;;
16504;SDS011;8365;51.030;4.696;2023-02-03T09:48:54;7.80;;;3.50;;
16504;SDS011;8365;51.030;4.696;2023-02-03T09:51:28;5.93;;;4.10;;
16504;SDS011;8365;51.030;4.696;2023-02-03T09:54:12;4.50;;;3.13;;
16504;SDS011;8365;51.030;4.696;2023-02-03T09:56:47;4.33;;;3.43;;
16504;SDS011;8365;51.030;4.696;2023-02-03T09:59:22;4.60;;;3.57;;
16504;SDS011;8365;51.030;4.696;2023-02-03T10:05:03;5.57;;;3.33;;
16504;SDS011;8365;51.030;4.696;2023-02-03T10:10:45;6.27;;;3.20;;
16504;SDS011;8365;51.030;4.696;2023-02-03T10:19:28;9.00;;;5.40;;
16504;SDS011;8365;51.030;4.696;2023-02-03T10:22:26;7.40;;;5.13;;
16504;SDS011;8365;51.030;4.696;2023-02-03T10:25:02;9.00;;;5.03;;
16504;SDS011;8365;51.030;4.696;2023-02-03T10:27:37;8.87;;;3.93;;
16504;SDS011;8365;51.030;4.696;2023-02-03T10:30:24;6.97;;;3.80;;
16504;SDS011;8365;51.030;4.696;2023-02-03T10:32:58;4.90;;;3.40;;
16504;SDS011;8365;51.030;4.696;2023-02-03T10:35:45;6.80;;;3.60;;
16504;SDS011;8365;51.030;4.696;2023-02-03T10:38:57;6.47;;;3.70;;
16504;SDS011;8365;51.030;4.696;2023-02-03T10:41:28;5.77;;;3.50;;
16504;SDS011;8365;51.030;4.696;2023-02-03T10:44:01;6.43;;;3.37;;
16504;SDS011;8365;51.030;4.696;2023-02-03T10:46:34;5.80;;;3.60;;
16504;SDS011;8365;51.030;4.696;2023-02-03T10:49:08;6.37;;;3.80;;
16504;SDS011;8365;51.030;4.696;2023-02-03T10:51:43;6.90;;;4.10;;
16504;SDS011;8365;51.030;4.696;2023-02-03T10:54:26;7.43;;;5.07;;
16504;SDS011;8365;51.030;4.696;2023-02-03T10:57:00;4.97;;;3.60;;
16504;SDS011;8365;51.030;4.696;2023-02-03T10:59:34;9.30;;;4.67;;
16504;SDS011;8365;51.030;4.696;2023-02-03T11:02:20;8.00;;;4.53;;
16504;SDS011;8365;51.030;4.696;2023-02-03T11:07:47;7.43;;;3.90;;
16504;SDS011;8365;51.030;4.696;2023-02-03T11:13:18;7.80;;;4.00;;
16504;SDS011;8365;51.030;4.696;2023-02-03T11:15:53;8.37;;;3.77;;
16504;SDS011;8365;51.030;4.696;2023-02-03T11:18:46;7.73;;;4.73;;
16504;SDS011;8365;51.030;4.696;2023-02-03T11:21:39;7.10;;;4.13;;
16504;SDS011;8365;51.030;4.696;2023-02-03T11:24:27;5.90;;;4.10;;
16504;SDS011;8365;51.030;4.696;2023-02-03T11:27:03;7.97;;;4.17;;
16504;SDS011;8365;51.030;4.696;2023-02-03T11:29:47;8.77;;;5.20;;
16504;SDS011;8365;51.030;4.696;2023-02-03T11:35:27;5.63;;;4.30;;
16504;SDS011;8365;51.030;4.696;2023-02-03T11:38:00;5.73;;;3.80;;
16504;SDS011;8365;51.030;4.696;2023-02-03T11:40:31;11.53;;;4.97;;
16504;SDS011;8365;51.030;4.696;2023-02-03T11:43:16;7.07;;;3.50;;
16504;SDS011;8365;51.030;4.696;2023-02-03T11:45:47;5.17;;;4.20;;
16504;SDS011;8365;51.030;4.696;2023-02-03T11:48:31;7.77;;;4.43;;
16504;SDS011;8365;51.030;4.696;2023-02-03T11:59:51;6.30;;;4.20;;
16504;SDS011;8365;51.030;4.696;2023-02-03T12:05:39;9.10;;;4.63;;
16504;SDS011;8365;51.030;4.696;2023-02-03T12:08:42;7.60;;;4.27;;
16504;SDS011;8365;51.030;4.696;2023-02-03T12:11:34;9.20;;;6.07;;
16504;SDS011;8365;51.030;4.696;2023-02-03T12:17:25;7.57;;;4.27;;
16504;SDS011;8365;51.030;4.696;2023-02-03T12:20:14;7.37;;;4.00;;
16504;SDS011;8365;51.030;4.696;2023-02-03T12:34:30;6.00;;;3.80;;
16504;SDS011;8365;51.030;4.696;2023-02-03T12:37:07;7.17;;;3.80;;
16504;SDS011;8365;51.030;4.696;2023-02-03T12:39:44;5.50;;;4.33;;
16504;SDS011;8365;51.030;4.696;2023-02-03T12:42:23;7.17;;;3.03;;
16504;SDS011;8365;51.030;4.696;2023-02-03T12:48:01;5.80;;;3.87;;
16504;SDS011;8365;51.030;4.696;2023-02-03T12:50:42;9.50;;;3.40;;
16504;SDS011;8365;51.030;4.696;2023-02-03T12:53:30;5.73;;;2.90;;
16504;SDS011;8365;51.030;4.696;2023-02-03T12:56:11;4.77;;;3.40;;
16504;SDS011;8365;51.030;4.696;2023-02-03T12:58:57;5.70;;;3.17;;
16504;SDS011;8365;51.030;4.696;2023-02-03T13:01:35;7.73;;;3.13;;
16504;SDS011;8365;51.030;4.696;2023-02-03T13:04:16;7.47;;;2.87;;
16504;SDS011;8365;51.030;4.696;2023-02-03T13:07:20;4.67;;;2.80;;
16504;SDS011;8365;51.030;4.696;2023-02-03T13:12:52;4.70;;;2.60;;
16504;SDS011;8365;51.030;4.696;2023-02-03T13:15:30;4.30;;;3.10;;
16504;SDS011;8365;51.030;4.696;2023-02-03T13:20:44;6.30;;;2.80;;
16504;SDS011;8365;51.030;4.696;2023-02-03T13:23:15;7.90;;;3.80;;
16504;SDS011;8365;51.030;4.696;2023-02-03T13:45:22;7.23;;;3.93;;
16504;SDS011;8365;51.030;4.696;2023-02-03T13:48:27;5.80;;;3.57;;
16504;SDS011;8365;51.030;4.696;2023-02-03T13:51:23;7.67;;;3.67;;
16504;SDS011;8365;51.030;4.696;2023-02-03T13:54:05;8.50;;;4.20;;
16504;SDS011;8365;51.030;4.696;2023-02-03T13:56:43;5.33;;;4.10;;
16504;SDS011;8365;51.030;4.696;2023-02-03T13:59:37;5.43;;;3.17;;
16504;SDS011;8365;51.030;4.696;2023-02-03T14:04:52;4.93;;;3.37;;
16504;SDS011;8365;51.030;4.696;2023-02-03T14:07:34;5.20;;;3.10;;
16504;SDS011;8365;51.030;4.696;2023-02-03T14:18:03;7.80;;;3.17;;
16504;SDS011;8365;51.030;4.696;2023-02-03T14:20:37;5.00;;;2.80;;
16504;SDS011;8365;51.030;4.696;2023-02-03T14:23:20;5.27;;;2.80;;
16504;SDS011;8365;51.030;4.696;2023-02-03T14:25:56;5.33;;;3.80;;
16504;SDS011;8365;51.030;4.696;2023-02-03T14:28:38;7.73;;;3.13;;
16504;SDS011;8365;51.030;4.696;2023-02-03T14:31:16;5.03;;;2.90;;
16504;SDS011;8365;51.030;4.696;2023-02-03T14:36:51;5.00;;;3.50;;
16504;SDS011;8365;51.030;4.696;2023-02-03T14:50:05;6.03;;;3.30;;
16504;SDS011;8365;51.030;4.696;2023-02-03T14:55:34;4.17;;;2.73;;
16504;SDS011;8365;51.030;4.696;2023-02-03T14:58:14;7.00;;;3.40;;
16504;SDS011;8365;51.030;4.696;2023-02-03T15:00:54;8.20;;;3.27;;
16504;SDS011;8365;51.030;4.696;2023-02-03T15:03:25;8.00;;;3.47;;
16504;SDS011;8365;51.030;4.696;2023-02-03T15:06:00;5.87;;;3.00;;
16504;SDS011;8365;51.030;4.696;2023-02-03T15:08:34;6.60;;;3.20;;
16504;SDS011;8365;51.030;4.696;2023-02-03T15:11:32;5.13;;;3.23;;
16504;SDS011;8365;51.030;4.696;2023-02-03T15:14:13;8.83;;;4.10;;
16504;SDS011;8365;51.030;4.696;2023-02-03T15:19:33;6.37;;;4.13;;
16504;SDS011;8365;51.030;4.696;2023-02-03T15:22:18;7.10;;;3.53;;
16504;SDS011;8365;51.030;4.696;2023-02-03T15:24:57;7.20;;;3.20;;
16504;SDS011;8365;51.030;4.696;2023-02-03T15:27:30;5.10;;;3.40;;
16504;SDS011;8365;51.030;4.696;2023-02-03T15:30:14;5.87;;;3.00;;
16504;SDS011;8365;51.030;4.696;2023-02-03T15:32:47;5.53;;;2.83;;
16504;SDS011;8365;51.030;4.696;2023-02-03T15:35:25;4.63;;;2.83;;
16504;SDS011;8365;51.030;4.696;2023-02-03T15:38:03;6.83;;;3.40;;
16504;SDS011;8365;51.030;4.696;2023-02-03T15:40:44;3.63;;;3.07;;
16504;SDS011;8365;51.030;4.696;2023-02-03T15:43:19;6.27;;;3.67;;
16504;SDS011;8365;51.030;4.696;2023-02-03T15:48:32;5.90;;;3.13;;
16504;SDS011;8365;51.030;4.696;2023-02-03T15:51:21;6.27;;;3.03;;
16504;SDS011;8365;51.030;4.696;2023-02-03T15:57:06;3.80;;;3.00;;
16504;SDS011;8365;51.030;4.696;2023-02-03T15:59:58;6.37;;;3.63;;
16504;SDS011;8365;51.030;4.696;2023-02-03T16:02:33;6.50;;;3.30;;
16504;SDS011;8365;51.030;4.696;2023-02-03T16:05:26;7.63;;;3.43;;
16504;SDS011;8365;51.030;4.696;2023-02-03T16:11:01;6.63;;;3.27;;
16504;SDS011;8365;51.030;4.696;2023-02-03T16:14:11;5.83;;;3.60;;
16504;SDS011;8365;51.030;4.696;2023-02-03T16:17:13;4.90;;;3.43;;
16504;SDS011;8365;51.030;4.696;2023-02-03T16:20:12;7.10;;;3.77;;
16504;SDS011;8365;51.030;4.696;2023-02-03T16:22:44;7.03;;;3.50;;
16504;SDS011;8365;51.030;4.696;2023-02-03T16:31:10;7.27;;;4.60;;
16504;SDS011;8365;51.030;4.696;2023-02-03T16:34:13;5.70;;;3.87;;
16504;SDS011;8365;51.030;4.696;2023-02-03T16:37:11;5.37;;;3.67;;
16504;SDS011;8365;51.030;4.696;2023-02-03T16:40:01;8.83;;;5.23;;
16504;SDS011;8365;51.030;4.696;2023-02-03T16:42:50;5.83;;;3.27;;
16504;SDS011;8365;51.030;4.696;2023-02-03T16:45:39;7.67;;;4.17;;
16504;SDS011;8365;51.030;4.696;2023-02-03T16:48:28;5.93;;;3.73;;
16504;SDS011;8365;51.030;4.696;2023-02-03T16:51:17;6.13;;;3.60;;
16504;SDS011;8365;51.030;4.696;2023-02-03T16:53:47;7.53;;;3.83;;
16504;SDS011;8365;51.030;4.696;2023-02-03T16:56:18;5.50;;;3.90;;
16504;SDS011;8365;51.030;4.696;2023-02-03T16:58:49;5.63;;;4.00;;
16504;SDS011;8365;51.030;4.696;2023-02-03T17:01:19;9.03;;;5.27;;
16504;SDS011;8365;51.030;4.696;2023-02-03T17:03:50;8.97;;;4.23;;
16504;SDS011;8365;51.030;4.696;2023-02-03T17:06:20;8.23;;;4.40;;
16504;SDS011;8365;51.030;4.696;2023-02-03T17:08:51;5.87;;;3.97;;
16504;SDS011;8365;51.030;4.696;2023-02-03T17:11:22;7.13;;;4.50;;
16504;SDS011;8365;51.030;4.696;2023-02-03T17:13:52;7.83;;;4.20;;
16504;SDS011;8365;51.030;4.696;2023-02-03T17:16:24;8.30;;;4.23;;
16504;SDS011;8365;51.030;4.696;2023-02-03T17:18:55;7.53;;;4.70;;
16504;SDS011;8365;51.030;4.696;2023-02-03T17:21:26;8.73;;;5.53;;
16504;SDS011;8365;51.030;4.696;2023-02-03T17:23:58;10.23;;;6.87;;
16504;SDS011;8365;51.030;4.696;2023-02-03T17:26:28;8.53;;;5.37;;
16504;SDS011;8365;51.030;4.696;2023-02-03T17:29:01;11.53;;;6.00;;
16504;SDS011;8365;51.030;4.696;2023-02-03T17:31:32;8.10;;;4.40;;
16504;SDS011;8365;51.030;4.696;2023-02-03T17:34:03;8.80;;;4.73;;
16504;SDS011;8365;51.030;4.696;2023-02-03T17:36:33;10.53;;;5.37;;
16504;SDS011;8365;51.030;4.696;2023-02-03T17:39:06;7.60;;;4.83;;
16504;SDS011;8365;51.030;4.696;2023-02-03T17:41:38;8.20;;;5.27;;
16504;SDS011;8365;51.030;4.696;2023-02-03T17:44:08;9.63;;;5.53;;
16504;SDS011;8365;51.030;4.696;2023-02-03T17:46:39;7.10;;;5.07;;
16504;SDS011;8365;51.030;4.696;2023-02-03T17:49:09;8.07;;;5.20;;
16504;SDS011;8365;51.030;4.696;2023-02-03T17:51:40;11.13;;;5.50;;
16504;SDS011;8365;51.030;4.696;2023-02-03T17:54:11;11.50;;;5.87;;
16504;SDS011;8365;51.030;4.696;2023-02-03T17:56:41;12.00;;;6.10;;
16504;SDS011;8365;51.030;4.696;2023-02-03T17:59:16;15.30;;;5.77;;
16504;SDS011;8365;51.030;4.696;2023-02-03T18:01:46;14.50;;;6.83;;
16504;SDS011;8365;51.030;4.696;2023-02-03T18:04:17;9.53;;;7.07;;
16504;SDS011;8365;51.030;4.696;2023-02-03T18:06:47;11.37;;;7.90;;
16504;SDS011;8365;51.030;4.696;2023-02-03T18:09:18;9.97;;;6.63;;
16504;SDS011;8365;51.030;4.696;2023-02-03T18:11:49;12.33;;;6.63;;
16504;SDS011;8365;51.030;4.696;2023-02-03T18:14:19;11.37;;;6.10;;